createdAt,value
2023-01-28T00:00:54.928Z,-1.75
2023-01-28T00:03:26.605Z,-1.77
2023-01-28T00:06:03.182Z,-1.75
2023-01-28T00:08:30.736Z,-1.76
2023-01-28T00:11:01.512Z,-1.76
2023-01-28T00:13:29.789Z,-1.77
2023-01-28T00:15:59.158Z,-1.77
2023-01-28T00:18:27.895Z,-1.76
2023-01-28T00:21:01.944Z,-1.76
2023-01-28T00:23:31.374Z,-1.75
2023-01-28T00:25:59.451Z,-1.75
2023-01-28T00:28:26.727Z,-1.74
2023-01-28T00:30:53.768Z,-1.74
2023-01-28T00:33:20.989Z,-1.75
2023-01-28T00:35:48.050Z,-1.73
2023-01-28T00:38:15.218Z,-1.74
2023-01-28T00:40:42.158Z,-1.76
2023-01-28T00:43:09.334Z,-1.76
2023-01-28T00:45:36.292Z,-1.77
2023-01-28T00:48:04.455Z,-1.77
2023-01-28T00:50:31.396Z,-1.77
2023-01-28T00:52:58.620Z,-1.78
2023-01-28T00:55:25.540Z,-1.76
2023-01-28T00:57:52.679Z,-1.76
2023-01-28T01:00:21.886Z,-1.77
2023-01-28T01:02:49.165Z,-1.78
2023-01-28T01:05:16.555Z,-1.77
2023-01-28T01:07:44.195Z,-1.75
2023-01-28T01:10:14.213Z,-1.75
2023-01-28T01:12:41.630Z,-1.75
2023-01-28T01:15:10.560Z,-1.76
2023-01-28T01:17:42.659Z,-1.78
2023-01-28T01:20:16.301Z,-1.76
2023-01-28T01:22:43.485Z,-1.77
2023-01-28T01:25:12.843Z,-1.77
2023-01-28T01:27:40.615Z,-1.75
2023-01-28T01:30:08.591Z,-1.76
2023-01-28T01:32:36.311Z,-1.77
2023-01-28T01:35:08.223Z,-1.77
2023-01-28T01:37:36.083Z,-1.77
2023-01-28T01:40:05.054Z,-1.74
2023-01-28T01:42:33.483Z,-1.76
2023-01-28T01:45:12.496Z,-1.77
2023-01-28T01:47:47.501Z,-1.77
2023-01-28T01:50:28.969Z,-1.78
2023-01-28T01:53:02.236Z,-1.77
2023-01-28T01:55:35.758Z,-1.80
2023-01-28T01:58:09.019Z,-1.76
2023-01-28T02:00:36.061Z,-1.75
2023-01-28T02:03:03.589Z,-1.75
2023-01-28T02:05:30.440Z,-1.74
2023-01-28T02:08:17.643Z,-1.73
2023-01-28T02:10:45.555Z,-1.71
2023-01-28T02:13:14.449Z,-1.72
2023-01-28T02:15:41.917Z,-1.74
2023-01-28T02:18:09.235Z,-1.73
2023-01-28T02:20:57.577Z,-1.72
2023-01-28T02:23:30.308Z,-1.71
2023-01-28T02:26:02.810Z,-1.72
2023-01-28T02:28:37.276Z,-1.71
2023-01-28T02:31:09.232Z,-1.73
2023-01-28T02:34:04.967Z,-1.75
2023-01-28T02:36:56.886Z,-1.75
2023-01-28T02:39:29.157Z,-1.75
2023-01-28T02:42:09.979Z,-1.76
2023-01-28T02:44:37.108Z,-1.75
2023-01-28T02:47:29.437Z,-1.76
2023-01-28T02:50:10.308Z,-1.75
2023-01-28T02:53:14.131Z,-1.75
2023-01-28T02:55:47.312Z,-1.74
2023-01-28T02:58:32.183Z,-1.74
2023-01-28T03:01:19.121Z,-1.74
2023-01-28T03:04:07.928Z,-1.76
2023-01-28T03:06:43.950Z,-1.74
2023-01-28T03:09:23.282Z,-1.75
2023-01-28T03:12:15.474Z,-1.74
2023-01-28T03:15:04.790Z,-1.73
2023-01-28T03:18:00.754Z,-1.75
2023-01-28T03:20:54.016Z,-1.76
2023-01-28T03:23:46.944Z,-1.79
2023-01-28T03:26:34.234Z,-1.79
2023-01-28T03:29:27.653Z,-1.80
2023-01-28T03:32:14.826Z,-1.81
2023-01-28T03:35:02.067Z,-1.83
2023-01-28T03:37:30.122Z,-1.86
2023-01-28T03:40:02.305Z,-1.84
2023-01-28T03:42:31.399Z,-1.85
2023-01-28T03:44:59.197Z,-1.85
2023-01-28T03:47:30.794Z,-1.85
2023-01-28T03:50:01.693Z,-1.83
2023-01-28T03:52:31.137Z,-1.86
2023-01-28T03:54:58.386Z,-1.85
2023-01-28T03:57:27.964Z,-1.85
2023-01-28T03:59:55.311Z,-1.84
2023-01-28T04:02:23.445Z,-1.84
2023-01-28T04:04:50.679Z,-1.87
2023-01-28T04:07:18.039Z,-1.85
2023-01-28T04:09:45.268Z,-1.88
2023-01-28T04:12:12.513Z,-1.89
2023-01-28T04:14:40.363Z,-1.89
2023-01-28T04:17:10.815Z,-1.89
2023-01-28T04:19:38.118Z,-1.90
2023-01-28T04:22:07.507Z,-1.88
2023-01-28T04:24:34.883Z,-1.89
2023-01-28T04:27:01.792Z,-1.90
2023-01-28T04:29:28.932Z,-1.86
2023-01-28T04:31:56.435Z,-1.88
2023-01-28T04:34:23.626Z,-1.84
2023-01-28T04:36:50.609Z,-1.83
2023-01-28T04:39:17.899Z,-1.83
2023-01-28T04:41:44.715Z,-1.84
2023-01-28T04:44:12.025Z,-1.86
2023-01-28T04:46:39.028Z,-1.86
2023-01-28T04:49:06.257Z,-1.85
2023-01-28T04:51:33.224Z,-1.85
2023-01-28T04:54:00.529Z,-1.87
2023-01-28T04:56:27.454Z,-1.90
2023-01-28T04:58:54.659Z,-1.90
2023-01-28T05:01:21.588Z,-1.89
2023-01-28T05:03:48.755Z,-1.89
2023-01-28T05:06:15.682Z,-1.92
2023-01-28T05:08:42.921Z,-1.92
2023-01-28T05:11:09.874Z,-1.90
2023-01-28T05:13:37.050Z,-1.94
2023-01-28T05:16:04.264Z,-1.93
2023-01-28T05:18:31.609Z,-1.94
2023-01-28T05:20:58.965Z,-1.94
2023-01-28T05:23:26.105Z,-1.93
2023-01-28T05:25:53.008Z,-1.93
2023-01-28T05:28:20.181Z,-1.93
2023-01-28T05:30:47.136Z,-1.93
2023-01-28T05:33:14.335Z,-1.93
2023-01-28T05:35:42.673Z,-1.93
2023-01-28T05:38:10.263Z,-1.93
2023-01-28T05:40:37.082Z,-1.95
2023-01-28T05:43:04.282Z,-1.92
2023-01-28T05:45:31.140Z,-1.92
2023-01-28T05:47:58.348Z,-1.92
2023-01-28T05:50:25.208Z,-1.91
2023-01-28T05:52:52.363Z,-1.94
2023-01-28T05:55:20.857Z,-1.94
2023-01-28T05:57:48.372Z,-1.96
2023-01-28T06:00:16.838Z,-1.97
2023-01-28T06:02:44.222Z,-2.01
2023-01-28T06:05:11.308Z,-2.02
2023-01-28T06:07:38.547Z,-2.01
2023-01-28T06:10:05.979Z,-2.00
2023-01-28T06:12:33.198Z,-2.00
2023-01-28T06:15:00.112Z,-1.99
2023-01-28T06:17:27.312Z,-2.00
2023-01-28T06:19:54.201Z,-2.00
2023-01-28T06:22:21.743Z,-2.02
2023-01-28T06:24:48.669Z,-2.01
2023-01-28T06:27:15.835Z,-2.01
2023-01-28T06:29:42.775Z,-1.98
2023-01-28T06:32:10.019Z,-1.97
2023-01-28T06:34:36.931Z,-1.94
2023-01-28T06:37:04.378Z,-1.94
2023-01-28T06:39:34.565Z,-1.91
2023-01-28T06:42:01.736Z,-1.92
2023-01-28T06:44:28.625Z,-1.91
2023-01-28T06:46:56.024Z,-1.90
2023-01-28T06:49:22.984Z,-1.86
2023-01-28T06:51:50.408Z,-1.85
2023-01-28T06:54:17.366Z,-1.80
2023-01-28T06:56:44.605Z,-1.81
2023-01-28T06:59:11.539Z,-1.80
2023-01-28T07:01:38.782Z,-1.76
2023-01-28T07:04:05.803Z,-1.75
2023-01-28T07:06:33.153Z,-1.72
2023-01-28T07:09:00.176Z,-1.69
2023-01-28T07:11:27.374Z,-1.64
2023-01-28T07:13:54.273Z,-1.65
2023-01-28T07:16:21.493Z,-1.65
2023-01-28T07:18:48.460Z,-1.64
2023-01-28T07:21:15.662Z,-1.61
2023-01-28T07:23:42.567Z,-1.59
2023-01-28T07:26:09.760Z,-1.55
2023-01-28T07:28:36.678Z,-1.54
2023-01-28T07:31:04.105Z,-1.52
2023-01-28T07:33:31.098Z,-1.48
2023-01-28T07:35:58.271Z,-1.43
2023-01-28T07:38:25.110Z,-1.41
2023-01-28T07:40:52.368Z,-1.36
2023-01-28T07:43:19.267Z,-1.32
2023-01-28T07:45:48.577Z,-1.29
2023-01-28T07:48:15.671Z,-1.28
2023-01-28T07:50:43.292Z,-1.23
2023-01-28T07:53:12.047Z,-1.18
2023-01-28T07:55:39.348Z,-1.21
2023-01-28T07:58:08.031Z,-1.19
2023-01-28T08:00:37.209Z,-1.19
2023-01-28T08:03:07.181Z,-1.21
2023-01-28T08:05:46.829Z,-1.13
2023-01-28T08:08:14.859Z,-1.06
2023-01-28T08:10:44.170Z,-1.02
2023-01-28T08:13:11.883Z,-1.05
2023-01-28T08:15:39.423Z,-1.01
2023-01-28T08:18:08.089Z,-1.01
2023-01-28T08:20:36.345Z,-0.95
2023-01-28T08:23:13.137Z,-0.89
2023-01-28T08:25:40.530Z,-0.78
2023-01-28T08:28:08.161Z,-0.70
2023-01-28T08:30:38.207Z,-0.64
2023-01-28T08:33:06.977Z,-0.57
2023-01-28T08:35:34.367Z,-0.57
2023-01-28T08:38:03.118Z,-0.52
2023-01-28T08:40:31.281Z,-0.47
2023-01-28T08:42:58.579Z,-0.35
2023-01-28T08:45:28.155Z,-0.30
2023-01-28T08:47:56.489Z,-0.35
2023-01-28T08:50:25.704Z,-0.29
2023-01-28T08:53:00.202Z,-0.29
2023-01-28T08:55:28.103Z,-0.25
2023-01-28T08:57:58.104Z,-0.23
2023-01-28T09:00:25.702Z,-0.18
2023-01-28T09:02:53.689Z,-0.12
2023-01-28T09:05:22.284Z,-0.09
2023-01-28T09:07:49.963Z,-0.04
2023-01-28T09:10:20.589Z,0.03
2023-01-28T09:12:48.045Z,0.08
2023-01-28T09:15:15.472Z,0.07
2023-01-28T09:17:42.358Z,0.04
2023-01-28T09:20:10.236Z,0.02
2023-01-28T09:22:37.238Z,-0.04
2023-01-28T09:25:04.825Z,-0.09
2023-01-28T09:27:32.299Z,-0.11
2023-01-28T09:29:59.585Z,-0.09
2023-01-28T09:32:26.484Z,-0.04
2023-01-28T09:34:53.683Z,0.05
2023-01-28T09:37:20.501Z,0.13
2023-01-28T09:39:48.450Z,0.18
2023-01-28T09:42:26.512Z,0.17
2023-01-28T09:45:16.674Z,0.20
2023-01-28T09:47:50.831Z,0.29
2023-01-28T09:50:27.001Z,0.29
2023-01-28T09:52:57.622Z,0.27
2023-01-28T09:55:39.577Z,0.24
2023-01-28T09:58:13.065Z,0.26
2023-01-28T10:01:17.557Z,0.26
2023-01-28T10:04:23.114Z,0.28
2023-01-28T10:06:56.089Z,0.35
2023-01-28T10:09:43.756Z,0.40
2023-01-28T10:12:20.051Z,0.44
2023-01-28T10:15:08.265Z,0.37
2023-01-28T10:17:39.400Z,0.33
2023-01-28T10:20:17.970Z,0.34
2023-01-28T10:22:55.790Z,0.27
2023-01-28T10:25:26.153Z,0.31
2023-01-28T10:27:53.322Z,0.39
2023-01-28T10:30:28.063Z,0.50
2023-01-28T10:33:18.115Z,0.58
2023-01-28T10:35:45.131Z,0.70
2023-01-28T10:38:19.963Z,0.79
2023-01-28T10:40:48.241Z,0.92
2023-01-28T10:43:25.164Z,0.97
2023-01-28T10:46:10.923Z,1.00
2023-01-28T10:48:47.935Z,1.08
2023-01-28T10:51:15.499Z,1.07
2023-01-28T10:53:45.102Z,1.07
2023-01-28T10:56:28.517Z,0.99
2023-01-28T10:59:02.590Z,0.96
2023-01-28T11:01:45.257Z,1.00
2023-01-28T11:04:19.192Z,1.04
2023-01-28T11:06:56.878Z,0.98
2023-01-28T11:09:31.245Z,0.97
2023-01-28T11:12:13.063Z,0.91
2023-01-28T11:14:51.328Z,0.86
2023-01-28T11:17:20.206Z,0.86
2023-01-28T11:19:47.345Z,0.81
2023-01-28T11:22:23.088Z,0.88
2023-01-28T11:24:50.834Z,0.91
2023-01-28T11:27:23.110Z,0.99
2023-01-28T11:29:58.432Z,1.08
2023-01-28T11:32:27.160Z,1.14
2023-01-28T11:35:00.505Z,1.16
2023-01-28T11:37:28.986Z,1.19
2023-01-28T11:40:03.943Z,1.18
2023-01-28T11:42:31.555Z,1.20
2023-01-28T11:44:58.697Z,1.24
2023-01-28T11:47:31.623Z,1.35
2023-01-28T11:50:29.904Z,1.49
2023-01-28T11:53:18.274Z,1.62
2023-01-28T11:56:03.996Z,1.56
2023-01-28T11:58:52.113Z,1.53
2023-01-28T12:01:28.578Z,1.40
2023-01-28T12:04:10.382Z,1.31
2023-01-28T12:07:08.162Z,1.19
2023-01-28T12:09:57.316Z,1.11
2023-01-28T12:12:53.575Z,1.11
2023-01-28T12:15:23.140Z,1.11
2023-01-28T12:17:52.940Z,1.10
2023-01-28T12:20:34.940Z,1.07
2023-01-28T12:23:53.284Z,1.04
2023-01-28T12:26:43.347Z,1.10
2023-01-28T12:29:34.972Z,1.14
2023-01-28T12:32:14.265Z,1.21
2023-01-28T12:35:00.537Z,1.26
2023-01-28T12:37:36.262Z,1.21
2023-01-28T12:40:16.155Z,1.12
2023-01-28T12:42:47.365Z,1.11
2023-01-28T12:45:41.086Z,1.14
2023-01-28T12:48:21.899Z,1.06
2023-01-28T12:50:53.914Z,1.03
2023-01-28T12:53:29.618Z,1.06
2023-01-28T12:56:08.444Z,1.01
2023-01-28T12:58:58.880Z,0.99
2023-01-28T13:01:39.262Z,0.97
2023-01-28T13:04:12.405Z,0.98
2023-01-28T13:06:51.118Z,0.95
2023-01-28T13:09:20.861Z,0.90
2023-01-28T13:11:50.971Z,0.82
2023-01-28T13:14:19.619Z,0.75
2023-01-28T13:16:46.834Z,0.76
2023-01-28T13:19:19.805Z,0.77
2023-01-28T13:21:49.972Z,0.78
2023-01-28T13:24:16.921Z,0.79
2023-01-28T13:26:55.934Z,0.78
2023-01-28T13:29:25.572Z,0.73
2023-01-28T13:31:55.633Z,0.74
2023-01-28T13:34:44.372Z,0.69
2023-01-28T13:37:30.056Z,0.67
2023-01-28T13:40:14.957Z,0.71
2023-01-28T13:42:42.337Z,0.72
2023-01-28T13:45:15.655Z,0.73
2023-01-28T13:47:50.205Z,0.73
2023-01-28T13:50:24.761Z,0.70
2023-01-28T13:53:18.049Z,0.67
2023-01-28T13:55:47.754Z,0.61
2023-01-28T13:58:33.356Z,0.55
2023-01-28T14:01:23.679Z,0.48
2023-01-28T14:04:35.068Z,0.47
2023-01-28T14:07:04.617Z,0.51
2023-01-28T14:09:56.714Z,0.43
2023-01-28T14:12:39.218Z,0.36
2023-01-28T14:15:18.515Z,0.34
2023-01-28T14:18:08.034Z,0.28
2023-01-28T14:20:56.305Z,0.24
2023-01-28T14:23:26.756Z,0.26
2023-01-28T14:26:06.030Z,0.24
2023-01-28T14:28:41.967Z,0.18
2023-01-28T14:31:18.438Z,0.13
2023-01-28T14:33:45.523Z,0.11
2023-01-28T14:36:13.109Z,0.07
2023-01-28T14:38:43.620Z,0.05
2023-01-28T14:41:26.621Z,0.03
2023-01-28T14:43:56.080Z,-0.01
2023-01-28T14:46:40.678Z,-0.04
2023-01-28T14:49:42.778Z,-0.11
2023-01-28T14:52:38.296Z,-0.13
2023-01-28T14:55:25.341Z,-0.16
2023-01-28T14:58:05.660Z,-0.24
2023-01-28T15:00:34.936Z,-0.26
2023-01-28T15:03:25.017Z,-0.29
2023-01-28T15:06:05.992Z,-0.32
2023-01-28T15:08:33.348Z,-0.35
2023-01-28T15:11:02.194Z,-0.39
2023-01-28T15:13:34.187Z,-0.40
2023-01-28T15:16:01.835Z,-0.43
2023-01-28T15:18:42.607Z,-0.45
2023-01-28T15:21:10.319Z,-0.47
2023-01-28T15:23:41.055Z,-0.48
2023-01-28T15:26:13.534Z,-0.50
2023-01-28T15:28:43.360Z,-0.50
2023-01-28T15:31:28.292Z,-0.54
2023-01-28T15:34:02.714Z,-0.56
2023-01-28T15:36:30.849Z,-0.59
2023-01-28T15:38:58.791Z,-0.63
2023-01-28T15:41:32.902Z,-0.66
2023-01-28T15:44:00.400Z,-0.68
2023-01-28T15:46:27.448Z,-0.73
2023-01-28T15:49:00.986Z,-0.77
2023-01-28T15:51:36.826Z,-0.78
2023-01-28T15:54:10.177Z,-0.82
2023-01-28T15:56:37.447Z,-0.83
2023-01-28T15:59:31.353Z,-0.85
2023-01-28T16:02:20.970Z,-0.91
2023-01-28T16:04:59.350Z,-0.93
2023-01-28T16:07:28.372Z,-0.93
2023-01-28T16:09:57.913Z,-0.96
2023-01-28T16:12:27.043Z,-0.98
2023-01-28T16:15:00.353Z,-0.98
2023-01-28T16:17:30.835Z,-0.98
2023-01-28T16:20:01.367Z,-1.02
2023-01-28T16:22:37.227Z,-1.03
2023-01-28T16:25:26.539Z,-1.03
2023-01-28T16:27:53.597Z,-1.03
2023-01-28T16:30:20.986Z,-1.05
2023-01-28T16:32:47.887Z,-1.08
2023-01-28T16:35:16.687Z,-1.09
2023-01-28T16:37:44.857Z,-1.09
2023-01-28T16:40:14.735Z,-1.10
2023-01-28T16:42:41.890Z,-1.10
2023-01-28T16:45:17.694Z,-1.10
2023-01-28T16:47:45.223Z,-1.10
2023-01-28T16:50:13.951Z,-1.10
2023-01-28T16:52:43.268Z,-1.10
2023-01-28T16:55:16.112Z,-1.09
2023-01-28T16:57:45.254Z,-1.08
2023-01-28T17:00:35.744Z,-1.10
2023-01-28T17:03:02.773Z,-1.08
2023-01-28T17:05:30.217Z,-1.07
2023-01-28T17:07:59.497Z,-1.07
2023-01-28T17:10:26.773Z,-1.06
2023-01-28T17:12:54.588Z,-1.08
2023-01-28T17:15:21.831Z,-1.07
2023-01-28T17:17:49.783Z,-1.07
2023-01-28T17:20:17.503Z,-1.06
2023-01-28T17:22:44.626Z,-1.08
2023-01-28T17:25:11.945Z,-1.07
2023-01-28T17:27:39.039Z,-1.06
2023-01-28T17:30:07.106Z,-1.07
2023-01-28T17:32:34.079Z,-1.07
2023-01-28T17:35:01.339Z,-1.08
2023-01-28T17:37:28.252Z,-1.11
2023-01-28T17:39:55.437Z,-1.10
2023-01-28T17:42:22.384Z,-1.10
2023-01-28T17:44:49.586Z,-1.08
2023-01-28T17:47:16.480Z,-1.09
2023-01-28T17:49:43.681Z,-1.09
2023-01-28T17:52:10.887Z,-1.10
2023-01-28T17:54:38.105Z,-1.09
2023-01-28T17:57:05.146Z,-1.11
2023-01-28T17:59:32.650Z,-1.12
2023-01-28T18:01:59.607Z,-1.13
2023-01-28T18:04:26.945Z,-1.13
2023-01-28T18:06:53.911Z,-1.15
2023-01-28T18:09:21.179Z,-1.17
2023-01-28T18:11:48.155Z,-1.17
2023-01-28T18:14:15.390Z,-1.19
2023-01-28T18:16:42.265Z,-1.19
2023-01-28T18:19:10.478Z,-1.19
2023-01-28T18:21:52.095Z,-1.19
2023-01-28T18:24:25.072Z,-1.22
2023-01-28T18:26:55.552Z,-1.24
2023-01-28T18:29:24.253Z,-1.23
2023-01-28T18:31:56.771Z,-1.27
2023-01-28T18:34:26.696Z,-1.26
2023-01-28T18:36:53.765Z,-1.27
2023-01-28T18:39:21.820Z,-1.24
2023-01-28T18:41:48.682Z,-1.24
2023-01-28T18:44:16.446Z,-1.24
2023-01-28T18:46:43.564Z,-1.24
2023-01-28T18:49:10.945Z,-1.24
2023-01-28T18:51:38.765Z,-1.23
2023-01-28T18:54:10.519Z,-1.22
2023-01-28T18:56:39.087Z,-1.22
2023-01-28T18:59:07.632Z,-1.22
2023-01-28T19:01:35.068Z,-1.24
2023-01-28T19:04:02.861Z,-1.23
2023-01-28T19:06:30.744Z,-1.24
2023-01-28T19:09:05.958Z,-1.27
2023-01-28T19:11:33.757Z,-1.25
2023-01-28T19:14:01.745Z,-1.26
2023-01-28T19:16:29.337Z,-1.26
2023-01-28T19:18:59.245Z,-1.27
2023-01-28T19:21:27.988Z,-1.23
2023-01-28T19:23:56.586Z,-1.29
2023-01-28T19:26:24.489Z,-1.28
2023-01-28T19:28:52.552Z,-1.27
2023-01-28T19:31:21.448Z,-1.26
2023-01-28T19:33:49.593Z,-1.25
2023-01-28T19:36:16.585Z,-1.26
2023-01-28T19:38:43.927Z,-1.26
2023-01-28T19:41:13.644Z,-1.21
2023-01-28T19:43:40.855Z,-1.20
2023-01-28T19:46:07.891Z,-1.21
2023-01-28T19:48:35.105Z,-1.23
2023-01-28T19:51:09.170Z,-1.23
2023-01-28T19:53:37.359Z,-1.23
2023-01-28T19:56:07.747Z,-1.24
2023-01-28T19:58:37.219Z,-1.24
2023-01-28T20:01:09.842Z,-1.24
2023-01-28T20:03:37.798Z,-1.23
2023-01-28T20:06:07.457Z,-1.21
2023-01-28T20:08:34.804Z,-1.20
2023-01-28T20:11:09.800Z,-1.20
2023-01-28T20:13:38.787Z,-1.22
2023-01-28T20:16:07.892Z,-1.22
2023-01-28T20:18:35.599Z,-1.20
2023-01-28T20:21:05.032Z,-1.19
2023-01-28T20:23:32.957Z,-1.19
2023-01-28T20:26:01.209Z,-1.19
2023-01-28T20:28:28.531Z,-1.19
2023-01-28T20:30:56.765Z,-1.19
2023-01-28T20:33:24.160Z,-1.19
2023-01-28T20:35:51.017Z,-1.17
2023-01-28T20:38:18.169Z,-1.18
2023-01-28T20:40:46.180Z,-1.15
2023-01-28T20:43:13.429Z,-1.15
2023-01-28T20:45:40.322Z,-1.16
2023-01-28T20:48:07.681Z,-1.14
2023-01-28T20:50:35.508Z,-1.15
2023-01-28T20:53:02.834Z,-1.15
2023-01-28T20:55:30.175Z,-1.14
2023-01-28T20:57:57.283Z,-1.15
2023-01-28T21:00:24.333Z,-1.13
2023-01-28T21:02:51.577Z,-1.14
2023-01-28T21:05:18.479Z,-1.15
2023-01-28T21:07:45.703Z,-1.14
2023-01-28T21:10:12.744Z,-1.15
2023-01-28T21:12:39.937Z,-1.15
2023-01-28T21:15:08.140Z,-1.13
2023-01-28T21:17:35.397Z,-1.17
2023-01-28T21:20:02.451Z,-1.16
2023-01-28T21:22:29.628Z,-1.15
2023-01-28T21:24:56.487Z,-1.18
2023-01-28T21:27:23.699Z,-1.18
2023-01-28T21:29:50.638Z,-1.18
2023-01-28T21:32:18.052Z,-1.19
2023-01-28T21:34:45.005Z,-1.17
2023-01-28T21:37:12.252Z,-1.18
2023-01-28T21:39:39.374Z,-1.19
2023-01-28T21:42:06.638Z,-1.20
2023-01-28T21:44:33.505Z,-1.20
2023-01-28T21:47:00.791Z,-1.19
2023-01-28T21:49:27.758Z,-1.20
2023-01-28T21:51:54.957Z,-1.20
2023-01-28T21:54:21.841Z,-1.21
2023-01-28T21:56:50.540Z,-1.21
2023-01-28T21:59:28.940Z,-1.21
2023-01-28T22:02:05.312Z,-1.22
2023-01-28T22:04:37.169Z,-1.24
2023-01-28T22:07:07.131Z,-1.26
2023-01-28T22:09:35.189Z,-1.29
2023-01-28T22:12:03.820Z,-1.29
2023-01-28T22:14:30.791Z,-1.32
2023-01-28T22:16:58.074Z,-1.32
2023-01-28T22:19:25.116Z,-1.36
2023-01-28T22:21:52.433Z,-1.34
2023-01-28T22:24:22.559Z,-1.35
2023-01-28T22:26:50.364Z,-1.37
2023-01-28T22:29:18.981Z,-1.37
2023-01-28T22:31:48.147Z,-1.36
2023-01-28T22:34:16.049Z,-1.38
2023-01-28T22:36:43.924Z,-1.41
2023-01-28T22:39:13.813Z,-1.41
2023-01-28T22:41:42.722Z,-1.40
2023-01-28T22:44:10.245Z,-1.40
2023-01-28T22:46:37.859Z,-1.40
2023-01-28T22:49:05.678Z,-1.40
2023-01-28T22:51:35.511Z,-1.40
2023-01-28T22:54:03.189Z,-1.39
2023-01-28T22:56:31.314Z,-1.40
2023-01-28T22:59:03.009Z,-1.40
2023-01-28T23:01:30.993Z,-1.41
2023-01-28T23:03:58.530Z,-1.42
2023-01-28T23:06:27.565Z,-1.42
2023-01-28T23:08:54.717Z,-1.43
2023-01-28T23:11:28.656Z,-1.43
2023-01-28T23:14:20.307Z,-1.44
2023-01-28T23:17:07.012Z,-1.48
2023-01-28T23:19:53.010Z,-1.49
2023-01-28T23:22:42.548Z,-1.50
2023-01-28T23:25:10.317Z,-1.51
2023-01-28T23:27:37.912Z,-1.50
2023-01-28T23:30:10.222Z,-1.50
2023-01-28T23:32:40.304Z,-1.50
2023-01-28T23:35:08.913Z,-1.48
2023-01-28T23:37:36.323Z,-1.48
2023-01-28T23:40:04.602Z,-1.45
2023-01-28T23:42:31.849Z,-1.45
2023-01-28T23:44:58.749Z,-1.44
2023-01-28T23:47:26.215Z,-1.44
2023-01-28T23:49:53.081Z,-1.43
2023-01-28T23:52:20.257Z,-1.43
2023-01-28T23:54:47.132Z,-1.42
2023-01-28T23:57:14.330Z,-1.41
2023-01-28T23:59:41.369Z,-1.45
